Portada
METAR-TAF:

METAR-TAF

Aeropuertos :

Aeropuerto de Breslavia-Copérnico

Breslavia, Polonia

latitud: 51-06N, longitud: 016-53E, altitud: 120 m

Observación

El informe se hizo hace 33 minutos, a las 14:00 UTC
Viento 8 kt del suroeste, variando entre sur y oeste
Temperatura 26°C
Humedad 39%
Presión 1015 hPa
Visibilidad 10 km o más
sin nubes por debajo de 1500 m y sin presencia de cumulonimbus.

METAR: EPWR 041400Z 23008KT 190V260 CAVOK 26/11 Q1015

Hora: 16:33 (14:33 UTC)

Pronóstico

El informe se hizo hace 3 horas y 3 minutos, a las 11:30 UTC
Pronóstico válido del 04 a las 12 UTC al 05 a las 12 UTC
Viento 8 kt del sur-suroeste
Visibilidad 10 km o más
sin nubes por debajo de 1500 m y sin presencia de cumulonimbus.
Probabilidad 40% :
Temporalmente
del 04 a las 12 UTC al 04 a las 17 UTC
Nubes dispersas a una altura de 5000 ft, Cumulus congestus.

TAF: EPWR 041130Z 0412/0512 21008KT CAVOK PROB40 TEMPO 0412/0417 SCT050TCU

Observaciones y pronósticos meteorológicos de más de 4000 aeropuertos (mensajes METAR y TAF).

Los puntos amarillos y rojos representan las estaciones disponibles.

Ponga el ratón en el punto deseado para ver el nombre de la estación.

Haga clic para ver las observaciones y los pronósticos meteorológicos.

Para cambiar el mapa : haga clic en los botones verdes con una cruz de color negro para hacer un zoom, en el botón verde con un guión para alejar o en las flechas verdes para mapas adyacentes.


METAR-TAF: